createdAt,value
2018-09-15T00:00:56.951Z,20.73
2018-09-15T00:03:32.052Z,18.33
2018-09-15T00:06:07.171Z,23.73
2018-09-15T00:08:41.798Z,21.20
2018-09-15T00:11:17.422Z,20.37
2018-09-15T00:13:52.136Z,20.27
2018-09-15T00:16:26.983Z,20.70
2018-09-15T00:19:01.655Z,22.17
2018-09-15T00:21:36.442Z,20.50
2018-09-15T00:24:11.421Z,20.30
2018-09-15T00:26:52.950Z,19.50
2018-09-15T00:29:27.711Z,18.80
2018-09-15T00:32:02.561Z,17.43
2018-09-15T00:34:37.529Z,17.93
2018-09-15T00:37:12.367Z,17.17
2018-09-15T00:39:47.159Z,16.67
2018-09-15T00:42:21.882Z,15.57
2018-09-15T00:44:56.770Z,19.67
2018-09-15T00:47:31.590Z,20.67
2018-09-15T00:50:06.855Z,22.60
2018-09-15T00:52:41.642Z,22.47
2018-09-15T00:55:17.322Z,25.30
2018-09-15T00:57:51.938Z,23.33
2018-09-15T01:00:26.885Z,22.23
2018-09-15T01:03:01.757Z,26.00
2018-09-15T01:05:36.931Z,25.53
2018-09-15T01:08:11.761Z,27.57
2018-09-15T01:10:46.701Z,31.50
2018-09-15T01:13:21.392Z,30.57
2018-09-15T01:15:56.221Z,30.27
2018-09-15T01:18:30.991Z,31.53
2018-09-15T01:21:06.059Z,35.20
2018-09-15T01:23:40.891Z,29.10
2018-09-15T01:26:15.719Z,30.17
2018-09-15T01:28:51.387Z,27.27
2018-09-15T01:31:26.122Z,27.27
2018-09-15T01:34:01.142Z,26.27
2018-09-15T01:36:36.042Z,29.43
2018-09-15T01:39:11.950Z,28.53
2018-09-15T01:41:46.571Z,25.67
2018-09-15T01:44:21.424Z,28.17
2018-09-15T01:46:56.334Z,27.70
2018-09-15T01:49:31.293Z,30.27
2018-09-15T01:52:06.064Z,33.20
2018-09-15T01:54:41.249Z,28.97
2018-09-15T01:57:16.090Z,25.27
2018-09-15T01:59:50.870Z,26.20
2018-09-15T02:02:25.722Z,28.40
2018-09-15T02:05:00.350Z,28.13
2018-09-15T02:07:35.201Z,25.77
2018-09-15T02:10:10.469Z,26.57
2018-09-15T02:12:45.368Z,28.37
2018-09-15T02:15:20.066Z,27.30
2018-09-15T02:17:54.706Z,24.67
2018-09-15T02:20:29.548Z,26.40
2018-09-15T02:23:04.517Z,27.87
2018-09-15T02:25:40.211Z,27.60
2018-09-15T02:28:14.821Z,24.47
2018-09-15T02:30:49.573Z,25.10
2018-09-15T02:33:24.522Z,23.43
2018-09-15T02:35:59.350Z,25.00
2018-09-15T02:38:34.073Z,24.07
2018-09-15T02:41:08.818Z,22.77
2018-09-15T02:43:44.156Z,22.97
2018-09-15T02:46:19.402Z,23.03
2018-09-15T02:48:54.082Z,24.63
2018-09-15T02:51:28.818Z,23.97
2018-09-15T02:54:03.541Z,23.47
2018-09-15T02:56:38.307Z,24.43
2018-09-15T02:59:13.084Z,23.97
2018-09-15T03:01:47.758Z,22.50
2018-09-15T03:04:22.666Z,22.17
2018-09-15T03:06:57.525Z,20.50
2018-09-15T03:09:32.282Z,20.73
2018-09-15T03:12:07.361Z,20.97
2018-09-15T03:14:42.035Z,20.57
2018-09-15T03:17:16.738Z,22.27
2018-09-15T03:19:51.922Z,21.83
2018-09-15T03:22:26.761Z,21.30
2018-09-15T03:25:01.528Z,23.27
2018-09-15T03:27:37.205Z,23.13
2018-09-15T03:30:12.449Z,23.07
2018-09-15T03:32:48.293Z,23.47
2018-09-15T03:35:23.051Z,24.87
2018-09-15T03:37:57.878Z,21.50
2018-09-15T03:40:39.374Z,24.03
2018-09-15T03:43:14.179Z,22.73
2018-09-15T03:45:49.614Z,24.90
2018-09-15T03:48:24.244Z,23.57
2018-09-15T03:50:58.974Z,23.03
2018-09-15T03:53:33.718Z,26.10
2018-09-15T03:56:08.558Z,23.73
2018-09-15T03:58:43.292Z,25.33
2018-09-15T04:01:18.039Z,24.73
2018-09-15T04:03:52.768Z,24.50
2018-09-15T04:06:27.591Z,26.03
2018-09-15T04:09:02.447Z,26.97
2018-09-15T04:11:37.486Z,27.00
2018-09-15T04:14:12.236Z,24.33
2018-09-15T04:16:47.510Z,26.53
2018-09-15T04:19:22.786Z,24.87
2018-09-15T04:21:58.060Z,21.53
2018-09-15T04:24:32.826Z,24.93
2018-09-15T04:27:07.654Z,26.23
2018-09-15T04:29:42.852Z,25.93
2018-09-15T04:32:17.813Z,24.43
2018-09-15T04:34:52.838Z,26.90
2018-09-15T04:37:28.224Z,24.80
2018-09-15T04:40:03.233Z,27.43
2018-09-15T04:42:38.054Z,29.33
2018-09-15T04:45:12.995Z,27.53
2018-09-15T04:47:49.079Z,26.87
2018-09-15T04:50:23.770Z,27.80
2018-09-15T04:52:59.370Z,26.13
2018-09-15T04:55:33.970Z,25.67
2018-09-15T04:58:08.658Z,27.93
2018-09-15T05:00:43.581Z,26.90
2018-09-15T05:03:19.025Z,27.60
2018-09-15T05:05:54.200Z,24.53
2018-09-15T05:08:29.126Z,26.60
2018-09-15T05:11:03.899Z,25.20
2018-09-15T05:13:39.269Z,23.20
2018-09-15T05:16:13.896Z,24.30
2018-09-15T05:18:49.301Z,22.00
2018-09-15T05:21:24.046Z,21.40
2018-09-15T05:23:58.994Z,22.67
2018-09-15T05:26:33.749Z,21.47
2018-09-15T05:29:08.556Z,21.00
2018-09-15T05:31:43.218Z,23.13
2018-09-15T05:34:18.145Z,20.57
2018-09-15T05:36:53.642Z,20.20
2018-09-15T05:39:28.411Z,20.93
2018-09-15T05:42:03.252Z,18.97
2018-09-15T05:44:38.586Z,18.73
2018-09-15T05:47:14.029Z,17.90
2018-09-15T05:49:48.833Z,17.00
2018-09-15T05:52:24.098Z,16.70
2018-09-15T05:55:00.167Z,16.77
2018-09-15T05:57:35.043Z,18.00
2018-09-15T06:00:10.122Z,17.67
2018-09-15T06:02:44.986Z,17.30
2018-09-15T06:05:20.240Z,16.07
2018-09-15T06:07:55.489Z,17.23
2018-09-15T06:10:30.327Z,17.40
2018-09-15T06:13:05.466Z,16.77
2018-09-15T06:15:40.195Z,15.50
2018-09-15T06:18:14.977Z,14.60
2018-09-15T06:20:49.861Z,14.93
2018-09-15T06:23:24.832Z,15.93
2018-09-15T06:25:59.732Z,15.43
2018-09-15T06:28:34.925Z,12.93
2018-09-15T06:31:09.590Z,13.83
2018-09-15T06:33:44.862Z,12.47
2018-09-15T06:36:19.599Z,12.80
2018-09-15T06:38:55.309Z,12.83
2018-09-15T06:41:30.026Z,12.13
2018-09-15T06:44:04.753Z,12.80
2018-09-15T06:46:39.478Z,12.20
2018-09-15T06:49:14.243Z,12.33
2018-09-15T06:51:49.119Z,12.63
2018-09-15T06:54:24.018Z,12.53
2018-09-15T06:56:59.028Z,13.97
2018-09-15T06:59:33.757Z,10.67
2018-09-15T07:02:09.090Z,10.73
2018-09-15T07:04:43.781Z,10.23
2018-09-15T07:07:18.513Z,9.87
2018-09-15T07:09:53.301Z,10.37
2018-09-15T07:12:28.193Z,9.87
2018-09-15T07:15:03.421Z,9.57
2018-09-15T07:17:38.390Z,7.73
2018-09-15T07:20:13.283Z,9.73
2018-09-15T07:22:48.200Z,9.30
2018-09-15T07:25:23.661Z,11.07
2018-09-15T07:27:58.583Z,9.90
2018-09-15T07:30:33.501Z,10.70
2018-09-15T07:33:08.367Z,8.87
2018-09-15T07:35:43.220Z,8.70
2018-09-15T07:38:18.057Z,9.63
2018-09-15T07:40:53.032Z,8.73
2018-09-15T07:43:28.377Z,8.50
2018-09-15T07:46:03.414Z,7.33
2018-09-15T07:48:38.259Z,8.45
2018-09-15T07:51:13.583Z,7.30
2018-09-15T07:53:48.825Z,7.15
2018-09-15T07:56:24.261Z,7.75
2018-09-15T07:58:59.831Z,6.15
2018-09-15T08:01:34.614Z,8.07
2018-09-15T08:04:10.158Z,7.05
2018-09-15T08:06:45.656Z,6.20
2018-09-15T08:09:21.525Z,5.35
2018-09-15T08:11:56.950Z,4.87
2018-09-15T08:14:32.291Z,5.67
2018-09-15T08:17:07.822Z,4.20
2018-09-15T08:19:43.165Z,4.55
2018-09-15T08:22:18.448Z,4.10
2018-09-15T08:24:53.956Z,5.05
2018-09-15T08:27:29.396Z,4.47
2018-09-15T08:30:05.198Z,3.87
2018-09-15T08:32:40.450Z,5.62
2018-09-15T08:35:15.825Z,5.22
2018-09-15T08:37:51.166Z,7.10
2018-09-15T08:40:26.615Z,5.35
2018-09-15T08:43:02.075Z,5.58
2018-09-15T08:45:38.502Z,5.20
2018-09-15T08:48:14.074Z,5.17
2018-09-15T08:50:49.702Z,6.85
2018-09-15T08:53:25.103Z,4.85
2018-09-15T08:56:01.672Z,5.08
2018-09-15T08:58:37.361Z,4.12
2018-09-15T09:01:12.813Z,3.72
2018-09-15T09:03:48.583Z,4.20
2018-09-15T09:06:24.493Z,4.03
2018-09-15T09:08:59.949Z,4.20
2018-09-15T09:11:35.301Z,4.25
2018-09-15T09:14:10.771Z,5.12
2018-09-15T09:16:46.170Z,4.62
2018-09-15T09:19:21.626Z,4.40
2018-09-15T09:21:56.958Z,4.35
2018-09-15T09:24:32.142Z,4.10
2018-09-15T09:27:07.378Z,4.93
2018-09-15T09:29:42.491Z,4.10
2018-09-15T09:32:17.561Z,4.03
2018-09-15T09:34:52.902Z,5.03
2018-09-15T09:37:28.007Z,3.97
2018-09-15T09:40:03.149Z,4.03
2018-09-15T09:42:38.762Z,5.50
2018-09-15T09:45:13.919Z,3.77
2018-09-15T09:47:49.008Z,3.97
2018-09-15T09:50:24.127Z,4.13
2018-09-15T09:53:02.446Z,4.67
2018-09-15T09:55:37.989Z,4.58
2018-09-15T09:58:13.734Z,4.63
2018-09-15T10:00:54.468Z,4.63
2018-09-15T10:03:29.654Z,5.70
2018-09-15T10:06:05.008Z,4.40
2018-09-15T10:08:39.995Z,5.33
2018-09-15T10:11:15.759Z,4.00
2018-09-15T10:13:50.965Z,3.80
2018-09-15T10:16:26.998Z,3.40
2018-09-15T10:19:01.947Z,3.70
2018-09-15T10:21:38.302Z,3.87
2018-09-15T10:24:13.991Z,3.67
2018-09-15T10:26:49.107Z,3.70
2018-09-15T10:29:24.350Z,3.80
2018-09-15T10:31:59.636Z,3.93
2018-09-15T10:34:34.856Z,3.90
2018-09-15T10:37:09.962Z,3.40
2018-09-15T10:39:45.055Z,3.87
2018-09-15T10:42:20.474Z,3.03
2018-09-15T10:44:55.541Z,3.53
2018-09-15T10:47:31.258Z,5.13
2018-09-15T10:50:06.866Z,3.50
2018-09-15T10:52:41.933Z,4.03
2018-09-15T10:55:17.161Z,4.17
2018-09-15T10:57:53.178Z,3.80
2018-09-15T11:00:28.828Z,4.07
2018-09-15T11:03:03.977Z,3.73
2018-09-15T11:05:39.207Z,4.03
2018-09-15T11:08:15.004Z,3.73
2018-09-15T11:10:50.195Z,3.60
2018-09-15T11:13:25.485Z,3.73
2018-09-15T11:16:00.577Z,3.43
2018-09-15T11:18:35.769Z,3.40
2018-09-15T11:21:10.797Z,3.87
2018-09-15T11:23:45.842Z,3.30
2018-09-15T11:26:20.882Z,3.40
2018-09-15T11:28:56.128Z,3.63
2018-09-15T11:31:31.349Z,3.10
2018-09-15T11:34:06.664Z,3.23
2018-09-15T11:36:41.918Z,2.87
2018-09-15T11:39:17.926Z,3.57
2018-09-15T11:41:53.118Z,3.60
2018-09-15T11:44:28.147Z,3.40
2018-09-15T11:47:03.293Z,3.50
2018-09-15T11:49:38.330Z,3.23
2018-09-15T11:52:14.184Z,2.83
2018-09-15T11:54:49.410Z,3.03
2018-09-15T11:57:24.537Z,3.07
2018-09-15T11:59:59.647Z,3.30
2018-09-15T12:02:35.673Z,3.00
2018-09-15T12:05:10.908Z,2.27
2018-09-15T12:07:45.885Z,3.23
2018-09-15T12:10:21.722Z,2.70
2018-09-15T12:12:56.774Z,3.17
2018-09-15T12:15:31.862Z,3.17
2018-09-15T12:18:06.994Z,3.00
2018-09-15T12:20:42.529Z,3.33
2018-09-15T12:23:17.802Z,2.60
2018-09-15T12:25:52.917Z,2.80
2018-09-15T12:30:55.460Z,2.57
2018-09-15T12:33:30.406Z,2.30
2018-09-15T12:36:05.951Z,2.53
2018-09-15T12:38:41.291Z,2.43
2018-09-15T12:43:42.874Z,2.60
2018-09-15T12:46:18.527Z,2.37
2018-09-15T12:48:53.798Z,2.60
2018-09-15T12:51:28.933Z,3.37
2018-09-15T12:54:03.977Z,2.40
2018-09-15T12:56:39.790Z,2.90
2018-09-15T12:59:14.782Z,2.60
2018-09-15T13:04:16.521Z,2.37
2018-09-15T13:06:51.588Z,2.93
2018-09-15T13:09:26.641Z,3.93
2018-09-15T13:12:01.762Z,2.90
2018-09-15T13:14:37.771Z,3.03
2018-09-15T13:17:13.946Z,2.40
2018-09-15T13:19:49.096Z,2.70
2018-09-15T13:22:24.237Z,2.37
2018-09-15T13:25:00.167Z,2.40
2018-09-15T13:27:35.142Z,2.43
2018-09-15T13:30:10.331Z,2.80
2018-09-15T13:32:45.596Z,2.20
2018-09-15T13:35:20.915Z,2.40
2018-09-15T13:37:55.913Z,2.60
2018-09-15T13:40:31.120Z,2.60
2018-09-15T13:43:06.340Z,2.80
2018-09-15T13:45:41.377Z,2.10
2018-09-15T13:48:16.470Z,2.10
2018-09-15T13:50:51.614Z,2.20
2018-09-15T13:53:27.892Z,2.00
2018-09-15T13:56:03.149Z,2.33
2018-09-15T13:58:38.390Z,2.60
2018-09-15T14:01:13.681Z,1.97
2018-09-15T14:03:49.375Z,2.47
2018-09-15T14:06:25.375Z,2.50
2018-09-15T14:09:00.634Z,2.50
2018-09-15T14:11:35.531Z,2.47
2018-09-15T14:14:10.807Z,2.30
2018-09-15T14:16:45.967Z,2.40
2018-09-15T14:19:21.106Z,2.37
2018-09-15T14:21:56.234Z,2.30
2018-09-15T14:24:31.294Z,2.53
2018-09-15T14:27:06.411Z,2.33
2018-09-15T14:29:41.481Z,2.10
2018-09-15T14:32:16.606Z,2.43
2018-09-15T14:34:51.780Z,2.23
2018-09-15T14:37:26.961Z,2.33
2018-09-15T14:40:01.907Z,2.33
2018-09-15T14:42:36.867Z,2.13
2018-09-15T14:45:11.980Z,2.47
2018-09-15T14:47:47.605Z,2.50
2018-09-15T14:50:22.840Z,2.60
2018-09-15T14:52:58.193Z,2.43
2018-09-15T14:55:33.239Z,2.37
2018-09-15T14:58:08.365Z,2.13
2018-09-15T15:00:43.570Z,2.43
2018-09-15T15:03:18.886Z,2.33
2018-09-15T15:05:54.082Z,2.67
2018-09-15T15:08:29.220Z,2.30
2018-09-15T15:11:04.679Z,2.20
2018-09-15T15:13:39.818Z,2.40
2018-09-15T15:16:15.035Z,2.20
2018-09-15T15:18:49.907Z,2.40
2018-09-15T15:21:25.300Z,2.20
2018-09-15T15:24:00.295Z,2.10
2018-09-15T15:26:35.445Z,2.40
2018-09-15T15:29:10.575Z,2.30
2018-09-15T15:31:45.606Z,2.63
2018-09-15T15:34:20.871Z,2.60
2018-09-15T15:36:55.928Z,2.70
2018-09-15T15:39:31.227Z,2.47
2018-09-15T15:42:06.583Z,2.70
2018-09-15T15:44:41.959Z,3.60
2018-09-15T15:47:17.093Z,2.17
2018-09-15T15:49:52.057Z,2.53
2018-09-15T15:52:27.330Z,2.20
2018-09-15T15:55:02.434Z,2.57
2018-09-15T15:57:37.566Z,2.47
2018-09-15T16:00:12.699Z,2.47
2018-09-15T16:02:48.088Z,2.40
2018-09-15T16:05:23.084Z,2.60
2018-09-15T16:07:58.223Z,2.97
2018-09-15T16:10:33.317Z,2.50
2018-09-15T16:13:08.466Z,2.97
2018-09-15T16:15:43.439Z,2.53
2018-09-15T16:18:18.693Z,4.03
2018-09-15T16:20:53.933Z,3.63
2018-09-15T16:23:29.313Z,2.50
2018-09-15T16:26:04.321Z,2.40
2018-09-15T16:28:39.360Z,2.63
2018-09-15T16:31:14.545Z,2.47
2018-09-15T16:33:49.658Z,3.60
2018-09-15T16:36:25.522Z,2.50
2018-09-15T16:39:00.681Z,2.50
2018-09-15T16:41:35.619Z,2.50
2018-09-15T16:44:10.573Z,3.30
2018-09-15T16:46:45.558Z,4.67
2018-09-15T16:49:21.350Z,5.77
2018-09-15T16:51:56.493Z,4.20
2018-09-15T16:54:32.094Z,2.70
2018-09-15T16:57:07.046Z,3.60
2018-09-15T16:59:42.158Z,3.73
2018-09-15T17:02:17.429Z,2.87
2018-09-15T17:04:52.459Z,2.60
2018-09-15T17:07:28.074Z,2.30
2018-09-15T17:10:03.536Z,2.47
2018-09-15T17:12:39.023Z,2.00
2018-09-15T17:15:14.422Z,2.83
2018-09-15T17:17:49.840Z,3.02
2018-09-15T17:20:25.338Z,2.90
2018-09-15T17:23:01.596Z,2.85
2018-09-15T17:25:36.923Z,2.40
2018-09-15T17:28:12.297Z,6.83
2018-09-15T17:30:47.881Z,7.85
2018-09-15T17:33:23.102Z,18.10
2018-09-15T17:35:58.838Z,8.75
2018-09-15T17:38:34.527Z,7.97
2018-09-15T17:41:09.926Z,6.03
2018-09-15T17:43:45.714Z,3.92
2018-09-15T17:46:21.194Z,3.52
2018-09-15T17:48:57.068Z,8.48
2018-09-15T17:51:33.377Z,8.18
2018-09-15T17:54:09.289Z,5.92
2018-09-15T17:56:44.683Z,5.97
2018-09-15T17:59:20.014Z,6.37
2018-09-15T18:01:55.570Z,6.85
2018-09-15T18:04:31.238Z,4.05
2018-09-15T18:07:06.700Z,3.85
2018-09-15T18:09:42.444Z,5.42
2018-09-15T18:12:18.453Z,4.62
2018-09-15T18:14:54.023Z,3.85
2018-09-15T18:17:30.161Z,3.70
2018-09-15T18:20:06.105Z,4.37
2018-09-15T18:22:41.261Z,4.65
2018-09-15T18:25:16.491Z,5.10
2018-09-15T18:27:52.726Z,4.00
2018-09-15T18:30:28.438Z,3.50
2018-09-15T18:33:03.807Z,3.80
2018-09-15T18:35:39.525Z,4.08
2018-09-15T18:38:14.937Z,4.90
2018-09-15T18:40:50.441Z,3.83
2018-09-15T18:43:25.764Z,5.87
2018-09-15T18:46:01.179Z,3.83
2018-09-15T18:48:36.069Z,4.10
2018-09-15T18:51:10.989Z,4.03
2018-09-15T18:53:45.814Z,3.87
2018-09-15T18:56:21.707Z,4.05
2018-09-15T18:58:56.983Z,5.07
2018-09-15T19:01:31.674Z,3.90
2018-09-15T19:04:06.937Z,4.23
2018-09-15T19:06:42.174Z,4.03
2018-09-15T19:09:17.073Z,3.83
2018-09-15T19:11:52.332Z,4.30
2018-09-15T19:14:27.259Z,4.20
2018-09-15T19:17:02.397Z,5.07
2018-09-15T19:19:37.379Z,3.90
2018-09-15T19:22:12.454Z,4.37
2018-09-15T19:24:47.602Z,3.73
2018-09-15T19:27:22.677Z,5.20
2018-09-15T19:29:57.637Z,4.53
2018-09-15T19:32:32.466Z,4.20
2018-09-15T19:35:07.806Z,4.43
2018-09-15T19:37:42.640Z,3.97
2018-09-15T19:40:18.197Z,4.47
2018-09-15T19:42:53.248Z,4.00
2018-09-15T19:45:28.288Z,4.53
2018-09-15T19:48:03.994Z,3.80
2018-09-15T19:50:38.961Z,4.47
2018-09-15T19:53:14.055Z,4.30
2018-09-15T19:55:49.027Z,5.87
2018-09-15T19:58:24.030Z,3.73
2018-09-15T20:00:59.621Z,3.87
2018-09-15T20:03:34.404Z,4.13
2018-09-15T20:06:09.972Z,4.20
2018-09-15T20:08:45.289Z,5.07
2018-09-15T20:11:20.155Z,4.60
2018-09-15T20:13:55.015Z,4.00
2018-09-15T20:16:28.690Z,4.00
2018-09-15T20:19:02.461Z,4.03
2018-09-15T20:21:36.332Z,4.30
2018-09-15T20:24:11.134Z,4.00
2018-09-15T20:26:46.505Z,4.30
2018-09-15T20:29:21.486Z,4.30
2018-09-15T20:31:56.299Z,4.50
2018-09-15T20:34:31.285Z,4.37
2018-09-15T20:37:07.723Z,4.40
2018-09-15T20:39:44.840Z,4.57
2018-09-15T20:42:20.476Z,4.27
2018-09-15T20:44:56.005Z,4.60
2018-09-15T20:47:30.907Z,4.60
2018-09-15T20:50:05.998Z,5.07
2018-09-15T20:52:40.908Z,5.57
2018-09-15T20:55:15.728Z,5.33
2018-09-15T20:57:50.764Z,4.57
2018-09-15T21:00:26.295Z,5.00
2018-09-15T21:03:01.247Z,4.60
2018-09-15T21:05:36.214Z,4.60
2018-09-15T21:08:11.754Z,4.80
2018-09-15T21:10:47.832Z,5.53
2018-09-15T21:13:22.654Z,5.00
2018-09-15T21:15:58.677Z,5.23
2018-09-15T21:18:33.641Z,4.50
2018-09-15T21:21:08.569Z,4.97
2018-09-15T21:23:43.318Z,5.00
2018-09-15T21:26:19.029Z,4.70
2018-09-15T21:28:53.926Z,5.53
2018-09-15T21:31:28.719Z,4.90
2018-09-15T21:34:04.148Z,5.33
2018-09-15T21:36:39.399Z,4.53
2018-09-15T21:39:14.322Z,5.00
2018-09-15T21:41:49.572Z,4.67
2018-09-15T21:44:24.433Z,4.23
2018-09-15T21:46:59.159Z,4.60
2018-09-15T21:49:34.562Z,4.53
2018-09-15T21:52:09.317Z,5.00
2018-09-15T21:54:44.041Z,4.50
2018-09-15T21:57:19.088Z,4.57
2018-09-15T21:59:55.008Z,5.33
2018-09-15T22:02:32.295Z,4.77
2018-09-15T22:05:08.284Z,4.90
2018-09-15T22:07:43.255Z,5.00
2018-09-15T22:10:18.168Z,4.63
2018-09-15T22:12:53.300Z,4.53
2018-09-15T22:15:28.590Z,5.10
2018-09-15T22:18:03.922Z,4.83
2018-09-15T22:20:38.779Z,5.30
2018-09-15T22:23:13.746Z,5.97
2018-09-15T22:25:48.502Z,5.73
2018-09-15T22:28:23.535Z,5.77
2018-09-15T22:30:58.329Z,5.60
2018-09-15T22:33:33.332Z,5.37
2018-09-15T22:36:08.173Z,5.03
2018-09-15T22:38:43.097Z,5.90
2018-09-15T22:41:17.963Z,5.60
2018-09-15T22:43:52.830Z,6.47
2018-09-15T22:46:27.745Z,6.57
2018-09-15T22:49:09.595Z,5.00
2018-09-15T22:51:44.418Z,5.90
2018-09-15T22:54:19.172Z,5.70
2018-09-15T22:56:54.246Z,6.00
2018-09-15T22:59:29.460Z,5.30
2018-09-15T23:02:04.438Z,5.33
2018-09-15T23:04:39.430Z,5.13
2018-09-15T23:07:14.045Z,6.87
2018-09-15T23:09:49.777Z,5.60
2018-09-15T23:12:24.808Z,5.90
2018-09-15T23:14:59.794Z,5.93
2018-09-15T23:17:34.495Z,5.37
2018-09-15T23:20:09.351Z,5.23
2018-09-15T23:22:44.737Z,5.57
2018-09-15T23:25:19.498Z,5.60
2018-09-15T23:27:54.954Z,6.63
2018-09-15T23:30:29.765Z,5.53
2018-09-15T23:33:05.906Z,5.47
2018-09-15T23:35:40.604Z,6.13
2018-09-15T23:38:16.199Z,5.90
2018-09-15T23:40:51.181Z,6.37
2018-09-15T23:43:26.007Z,7.73
2018-09-15T23:46:01.228Z,7.87
2018-09-15T23:48:36.200Z,8.10
2018-09-15T23:51:10.866Z,7.27
2018-09-15T23:53:46.165Z,7.07
2018-09-15T23:56:20.997Z,7.73
2018-09-15T23:58:56.036Z,7.73
